Time;durP1;ratioP1;P1;durP2;ratioP2;P2;SDS_P1;SDS_P2;PMS_P1;PMS_P2;Temp;Humidity;BMP_temperature;BMP_pressure;BME280_temperature;BME280_humidity;BME280_pressure;Samples;Min_cycle;Max_cycle;Signal;HPM_P1;HPM_P2
2022/05/30 00:01:13;;;;;;;;;;;17.30;75.20;;;16.54;69.78;95463.34;4105544;34;19903;-86
2022/05/30 00:03:42;;;;;;;;;;;17.30;75.10;;;16.54;69.96;95463.34;4128379;34;20039;-87
2022/05/30 00:06:14;;;;;;;;;;;17.30;75.20;;;16.53;69.82;95455.38;4107655;34;20212;-87
2022/05/30 00:08:43;;;;;;;;;;;17.30;75.10;;;16.54;69.92;95452.31;4124916;34;20149;-87
2022/05/30 00:11:13;;;;;;;;;;;17.30;75.10;;;16.54;69.88;95451.47;4101186;34;19923;-88
2022/05/30 00:13:42;;;;;;;;;;;17.30;75.20;;;16.52;69.89;95443.53;4146574;34;19934;-86
2022/05/30 00:16:12;;;;;;;;;;;17.30;75.20;;;16.53;69.88;95447.91;4123888;34;20151;-87
2022/05/30 00:18:41;;;;;;;;;;;17.30;75.20;;;16.53;70.07;95439.63;4123338;34;20261;-87
2022/05/30 00:21:09;;;;;;;;;;;17.30;75.20;;;16.53;69.89;95444.34;4100718;34;19906;-87
2022/05/30 00:23:40;;;;;;;;;;;17.30;75.10;;;16.52;69.93;95443.53;4123278;34;19904;-86
2022/05/30 00:26:09;;;;;;;;;;;17.30;75.20;;;16.52;69.75;95439.97;4123622;34;20105;-87
2022/05/30 00:28:38;;;;;;;;;;;17.30;75.10;;;16.52;69.88;95438.00;4123856;34;19904;-87
2022/05/30 00:31:09;;;;;;;;;;;17.30;75.10;;;16.51;69.99;95436.38;4101016;34;20144;-86
2022/05/30 00:33:38;;;;;;;;;;;17.30;75.10;;;16.51;69.91;95439.13;4101367;34;19904;-87
2022/05/30 00:36:07;;;;;;;;;;;17.30;75.10;;;16.51;69.82;95441.09;4123708;34;19904;-87
2022/05/30 00:38:35;;;;;;;;;;;17.30;75.20;;;16.51;69.85;95444.66;4125867;34;19904;-86
2022/05/30 00:41:06;;;;;;;;;;;17.30;75.20;;;16.53;69.75;95449.84;4127804;34;20047;-86
2022/05/30 00:43:36;;;;;;;;;;;17.30;75.10;;;16.51;69.78;95449.41;4105883;34;20047;-87
2022/05/30 00:46:11;;;;;;;;;;;17.30;75.10;;;16.52;69.96;95451.03;4105789;34;19910;-87
2022/05/30 00:48:47;;;;;;;;;;;17.30;75.20;;;16.51;69.87;95441.91;4105764;34;19904;-86
2022/05/30 00:51:18;;;;;;;;;;;17.30;75.10;;;16.52;69.85;95442.72;4127609;34;20165;-87
2022/05/30 00:53:47;;;;;;;;;;;17.30;75.10;;;16.51;69.88;95436.38;4105624;34;20008;-86
2022/05/30 00:56:17;;;;;;;;;;;17.30;75.10;;;16.51;69.97;95427.28;4128086;34;20144;-87
2022/05/30 00:58:49;;;;;;;;;;;17.30;75.10;;;16.50;69.53;95434.75;4127750;34;20116;-86
2022/05/30 01:01:18;;;;;;;;;;;17.30;75.10;;;16.50;69.89;95434.75;4105187;34;19942;-86
2022/05/30 01:06:36;;;;;;;;;;;17.30;75.10;;;16.51;69.82;95425.31;4091683;34;19911;-86
2022/05/30 01:09:11;;;;;;;;;;;17.30;75.10;;;16.50;69.81;95423.69;4078319;34;20369;-86
2022/05/30 01:11:50;;;;;;;;;;;17.30;75.10;;;16.50;69.62;95411.84;4100681;34;19985;-86
2022/05/30 01:14:19;;;;;;;;;;;17.30;75.10;;;16.49;69.97;95413.78;4078884;34;19911;-86
2022/05/30 01:16:48;;;;;;;;;;;17.30;75.10;;;16.49;69.82;95405.50;4078892;34;19904;-86
2022/05/30 01:19:39;;;;;;;;;;;17.30;75.10;;;16.50;69.89;95407.13;4100763;34;20131;-86
2022/05/30 01:22:59;;;;;;;;;;;17.30;75.10;;;16.49;69.77;95405.50;4122781;34;19904;-86
2022/05/30 01:25:47;;;;;;;;;;;17.30;75.10;;;16.48;69.76;95403.88;4043288;34;20395;-87
2022/05/30 01:28:39;;;;;;;;;;;17.30;75.10;;;16.49;69.68;95413.78;4100800;34;20037;-86
2022/05/30 01:31:08;;;;;;;;;;;17.30;75.10;;;16.47;69.80;95410.53;4122740;34;19904;-86
2022/05/30 01:33:37;;;;;;;;;;;17.30;75.10;;;16.49;69.83;95415.75;4100973;34;19908;-86
2022/05/30 01:36:08;;;;;;;;;;;17.30;75.10;;;16.49;70.02;95410.22;4078593;34;20132;-86
2022/05/30 01:38:36;;;;;;;;;;;17.30;75.10;;;16.48;69.97;95411.38;4100849;34;19911;-86
2022/05/30 01:41:06;;;;;;;;;;;17.30;75.20;;;16.48;69.94;95425.97;4100128;34;20128;-86
2022/05/30 01:43:37;;;;;;;;;;;17.30;75.10;;;16.48;69.93;95419.66;4078579;34;20209;-86
2022/05/30 01:46:11;;;;;;;;;;;17.30;75.10;;;16.48;69.82;95425.97;4102137;34;19904;-86
2022/05/30 01:48:48;;;;;;;;;;;17.30;75.20;;;16.48;69.91;95425.97;4105065;34;19904;-86
2022/05/30 01:51:17;;;;;;;;;;;17.30;75.20;;;16.48;69.94;95436.22;4125143;34;20027;-86
2022/05/30 01:53:47;;;;;;;;;;;17.30;75.20;;;16.48;69.77;95441.75;4100150;34;20011;-86
2022/05/30 01:56:16;;;;;;;;;;;17.30;75.10;;;16.48;69.92;95442.56;4101330;34;19947;-86
2022/05/30 01:58:46;;;;;;;;;;;17.30;75.10;;;16.49;69.86;95446.16;4104831;34;19911;-86
2022/05/30 02:01:33;;;;;;;;;;;17.30;75.10;;;16.48;69.84;95453.59;4126804;34;19903;-86
2022/05/30 02:04:04;;;;;;;;;;;17.20;75.00;;;16.46;69.92;95455.88;4104937;34;19906;-86
2022/05/30 02:06:35;;;;;;;;;;;17.20;75.10;;;16.47;69.58;95471.31;4104920;34;19912;-86
2022/05/30 02:09:05;;;;;;;;;;;17.30;75.20;;;16.47;69.89;95468.56;4104963;34;19940;-86
2022/05/30 02:11:34;;;;;;;;;;;17.20;75.00;;;16.47;69.76;95465.78;4104417;34;20145;-86
2022/05/30 02:14:24;;;;;;;;;;;17.20;75.10;;;16.46;69.94;95466.94;4131448;34;19904;-86
2022/05/30 02:17:01;;;;;;;;;;;17.20;75.10;;;16.47;69.83;95471.31;4126614;34;20123;-86
2022/05/30 02:19:31;;;;;;;;;;;17.20;75.10;;;16.47;69.52;95485.13;4105008;34;19904;-86
2022/05/30 02:22:01;;;;;;;;;;;17.20;75.00;;;16.46;69.88;95483.50;4106904;34;20210;-86
2022/05/30 02:24:29;;;;;;;;;;;17.20;75.00;;;16.45;70.22;95481.91;4107144;34;20057;-86
2022/05/30 02:26:58;;;;;;;;;;;17.30;75.10;;;16.45;69.78;95481.91;4107154;34;19904;-86
2022/05/30 02:29:28;;;;;;;;;;;17.20;75.00;;;16.46;69.85;95477.97;4107191;34;20335;-86
2022/05/30 02:32:00;;;;;;;;;;;17.20;75.00;;;16.45;69.91;95487.44;4126777;34;19921;-86
2022/05/30 02:37:16;;;;;;;;;;;17.20;75.10;;;16.46;69.52;95488.22;4102654;34;20396;-86
2022/05/30 02:39:46;;;;;;;;;;;17.20;75.00;;;16.45;69.84;95497.66;4125522;34;20006;-85
2022/05/30 02:42:34;;;;;;;;;;;17.20;75.10;;;16.46;69.85;95494.56;4100711;34;19904;-86
2022/05/30 02:45:07;;;;;;;;;;;17.20;75.00;;;16.46;70.04;95496.53;4080502;34;20353;-86
2022/05/30 02:47:38;;;;;;;;;;;17.20;75.00;;;16.46;69.78;95496.53;4102660;34;20156;-86
2022/05/30 02:50:10;;;;;;;;;;;17.20;75.10;;;16.46;69.89;95505.59;4079895;34;19908;-86
2022/05/30 02:52:39;;;;;;;;;;;17.20;75.10;;;16.45;69.78;95504.00;4102742;34;20152;-86
2022/05/30 02:55:15;;;;;;;;;;;17.20;75.10;;;16.45;69.57;95515.06;4080198;34;19974;-86
2022/05/30 02:57:51;;;;;;;;;;;17.20;75.00;;;16.45;69.91;95514.22;4101758;34;20075;-86
2022/05/30 03:00:26;;;;;;;;;;;17.20;75.10;;;16.45;69.75;95520.59;4100728;34;19911;-86
2022/05/30 03:02:58;;;;;;;;;;;17.20;75.10;;;16.45;69.75;95515.06;4102289;34;20361;-86
2022/05/30 03:05:26;;;;;;;;;;;17.20;75.10;;;16.45;69.89;95519.75;4102130;34;19904;-86
2022/05/30 03:07:55;;;;;;;;;;;17.20;75.00;;;16.44;69.80;95527.25;4080458;34;20114;-86
2022/05/30 03:10:42;;;;;;;;;;;17.20;75.00;;;16.44;69.82;95530.00;4123861;34;20133;-86
2022/05/30 03:13:11;;;;;;;;;;;17.20;75.00;;;16.44;70.00;95538.28;4080101;34;19904;-86
2022/05/30 03:15:41;;;;;;;;;;;17.20;75.00;;;16.44;69.84;95541.06;4102245;34;19904;-86
2022/05/30 03:18:11;;;;;;;;;;;17.20;75.10;;;16.44;70.02;95543.81;4102278;34;19927;-86
2022/05/30 03:20:39;;;;;;;;;;;17.20;75.10;;;16.45;69.83;95542.69;4101705;34;19927;-86
2022/05/30 03:23:10;;;;;;;;;;;17.20;75.10;;;16.44;69.82;95546.59;4130126;34;19911;-86
2022/05/30 03:26:01;;;;;;;;;;;17.20;75.10;;;16.44;69.89;95557.63;4114794;34;19911;-85
2022/05/30 03:28:33;;;;;;;;;;;17.20;75.10;;;16.45;69.81;95552.91;4128875;34;19911;-86
2022/05/30 03:31:04;;;;;;;;;;;17.20;75.10;;;16.45;69.97;95550.97;4105570;34;20071;-85
2022/05/30 03:33:37;;;;;;;;;;;17.20;75.10;;;16.43;69.85;95558.78;4106603;34;20103;-86
2022/05/30 03:36:12;;;;;;;;;;;17.20;75.10;;;16.43;69.82;95564.28;4106368;34;19903;-86
2022/05/30 03:39:04;;;;;;;;;;;17.20;75.10;;;16.44;70.02;95574.22;4089421;34;19910;-85
2022/05/30 03:41:57;;;;;;;;;;;17.20;75.10;;;16.41;69.88;95575.66;4090869;34;19903;-86
2022/05/30 03:44:46;;;;;;;;;;;17.20;75.10;;;16.44;69.75;95588.03;4151917;34;20105;-86
2022/05/30 03:47:18;;;;;;;;;;;17.20;75.10;;;16.43;69.96;95594.69;4106202;34;20289;-85
2022/05/30 03:49:48;;;;;;;;;;;17.20;75.10;;;16.45;69.83;95600.69;4106436;34;20106;-86
2022/05/30 03:52:26;;;;;;;;;;;17.20;75.10;;;16.45;69.99;95597.09;4128442;34;19904;-86
2022/05/30 03:54:55;;;;;;;;;;;17.20;75.30;;;16.43;69.91;95600.22;4106268;34;19903;-86
2022/05/30 03:57:25;;;;;;;;;;;17.20;75.10;;;16.42;69.97;95602.13;4105985;34;19904;-86
2022/05/30 03:59:54;;;;;;;;;;;17.20;75.10;;;16.43;69.93;95600.22;4105826;34;19926;-86
2022/05/30 04:02:25;;;;;;;;;;;17.20;75.00;;;16.43;69.85;95594.69;4106132;34;20115;-86
2022/05/30 04:04:53;;;;;;;;;;;17.20;75.10;;;16.43;69.76;95600.22;4128575;34;20064;-85
2022/05/30 04:07:22;;;;;;;;;;;17.20;75.10;;;16.42;69.90;95602.13;4106013;34;19912;-85
2022/05/30 04:10:10;;;;;;;;;;;17.20;75.10;;;16.43;69.96;95611.25;4127822;34;19911;-87
2022/05/30 04:13:06;;;;;;;;;;;17.20;75.10;;;16.43;69.89;95622.31;4128376;34;19903;-85
2022/05/30 04:15:53;;;;;;;;;;;17.20;75.10;;;16.42;69.79;95617.91;4124800;34;20158;-85
2022/05/30 04:18:23;;;;;;;;;;;17.20;75.10;;;16.41;69.92;95619.03;4101673;34;19904;-85
2022/05/30 04:20:52;;;;;;;;;;;17.20;75.10;;;16.42;70.02;95620.69;4123140;34;20070;-85
2022/05/30 04:23:21;;;;;;;;;;;17.20;75.10;;;16.43;69.94;95625.06;4101415;34;19904;-85
2022/05/30 04:26:10;;;;;;;;;;;17.20;75.10;;;16.42;69.91;95615.16;4101136;34;19912;-85
2022/05/30 04:28:41;;;;;;;;;;;17.20;75.10;;;16.42;69.89;95620.69;4079594;34;20155;-85
2022/05/30 04:31:38;;;;;;;;;;;17.20;75.10;;;16.42;69.93;95626.19;4070836;34;20129;-85
2022/05/30 04:34:08;;;;;;;;;;;17.20;75.10;;;16.42;70.02;95632.53;4146267;34;19904;-85
2022/05/30 04:36:37;;;;;;;;;;;17.20;75.10;;;16.42;69.83;95632.53;4101342;34;20114;-85
2022/05/30 04:39:06;;;;;;;;;;;17.20;75.10;;;16.42;69.94;95638.06;4079257;34;20139;-86
2022/05/30 04:41:46;;;;;;;;;;;17.20;75.20;;;16.44;69.94;95643.28;4124073;34;20116;-86
2022/05/30 04:48:01;;;;;;;;;;;17.20;75.20;;;16.44;69.99;95646.03;4105695;34;19911;-86
2022/05/30 04:50:32;;;;;;;;;;;17.20;75.20;;;16.45;69.88;95655.13;4127456;34;20160;-86
2022/05/30 04:53:01;;;;;;;;;;;17.20;75.20;;;16.44;69.93;95646.03;4105552;34;20218;-86
2022/05/30 04:55:48;;;;;;;;;;;17.20;75.20;;;16.45;69.87;95652.38;4127847;34;20066;-86
2022/05/30 04:58:28;;;;;;;;;;;17.20;75.10;;;16.46;69.96;95660.31;4128009;34;20364;-86
2022/05/30 05:01:09;;;;;;;;;;;17.20;75.20;;;16.46;69.91;95654.00;4104903;34;20072;-86
2022/05/30 05:03:38;;;;;;;;;;;17.30;75.20;;;16.46;69.90;95660.31;4105654;34;19986;-86
2022/05/30 05:06:10;;;;;;;;;;;17.30;75.30;;;16.46;70.00;95654.00;4105524;34;19904;-86
2022/05/30 05:08:48;;;;;;;;;;;17.20;75.10;;;16.45;69.88;95660.66;4105501;34;20096;-86
2022/05/30 05:11:33;;;;;;;;;;;17.30;75.20;;;16.46;69.94;95657.56;4150682;34;20082;-86
2022/05/30 05:14:20;;;;;;;;;;;17.30;75.20;;;16.47;70.00;95667.47;4127724;34;19913;-86
2022/05/30 05:17:06;;;;;;;;;;;17.30;75.30;;;16.48;69.74;95669.09;4124073;34;19929;-86
2022/05/30 05:19:35;;;;;;;;;;;17.30;75.10;;;16.49;69.84;95670.72;4100882;34;19904;-86
2022/05/30 05:22:05;;;;;;;;;;;17.30;75.10;;;16.48;69.79;95669.09;4100182;34;19962;-86
2022/05/30 05:24:34;;;;;;;;;;;17.30;75.10;;;16.48;69.89;95679.34;4123115;34;19912;-86
2022/05/30 05:27:16;;;;;;;;;;;17.30;75.10;;;16.47;69.88;95681.28;4100614;34;19904;-86
2022/05/30 05:29:45;;;;;;;;;;;17.30;75.10;;;16.48;69.73;95680.16;4122917;34;19904;-87
2022/05/30 05:32:15;;;;;;;;;;;17.30;75.10;;;16.48;69.82;95666.34;4100409;34;19941;-86
2022/05/30 05:34:45;;;;;;;;;;;17.30;75.10;;;16.48;69.99;95674.63;4078894;34;20085;-86
2022/05/30 05:37:16;;;;;;;;;;;17.30;75.10;;;16.47;69.79;95673.00;4122925;34;19904;-86
2022/05/30 05:40:09;;;;;;;;;;;17.30;75.20;;;16.49;69.92;95692.03;4086413;34;19919;-86
2022/05/30 05:42:38;;;;;;;;;;;17.30;75.20;;;16.49;69.82;95690.06;4100789;34;19904;-86
2022/05/30 05:45:09;;;;;;;;;;;17.30;75.20;;;16.49;69.78;95692.84;4078590;34;19904;-86
2022/05/30 05:47:38;;;;;;;;;;;17.30;75.10;;;16.50;69.89;95699.19;4078574;34;20281;-86
2022/05/30 05:50:10;;;;;;;;;;;17.30;75.20;;;16.50;69.83;95700.00;4077738;34;20144;-86
2022/05/30 05:52:40;;;;;;;;;;;17.30;75.00;;;16.51;69.90;95707.16;4100349;34;20108;-86
2022/05/30 05:55:16;;;;;;;;;;;17.30;75.00;;;16.51;69.81;95706.34;4100025;34;20508;-86
2022/05/30 05:57:45;;;;;;;;;;;17.30;75.10;;;16.51;69.81;95703.59;4078298;34;19904;-86
2022/05/30 06:00:15;;;;;;;;;;;17.30;75.00;;;16.52;69.86;95714.31;4078155;34;19982;-86
2022/05/30 06:02:51;;;;;;;;;;;17.30;75.00;;;16.51;69.58;95707.16;4122638;34;20066;-85
2022/05/30 06:05:32;;;;;;;;;;;17.30;75.10;;;16.53;69.78;95712.34;4078668;34;20177;-85
2022/05/30 06:08:20;;;;;;;;;;;17.30;74.90;;;16.53;69.83;95715.94;4122536;34;19904;-85
2022/05/30 06:11:11;;;;;;;;;;;17.30;75.10;;;16.53;69.80;95713.16;4122203;34;20316;-87
2022/05/30 06:13:45;;;;;;;;;;;17.30;75.00;;;16.55;69.88;95718.38;4078329;34;20055;-86
2022/05/30 06:16:25;;;;;;;;;;;17.30;74.90;;;16.55;69.49;95721.97;4100183;34;20479;-85
2022/05/30 06:19:09;;;;;;;;;;;17.30;74.80;;;16.55;69.59;95718.38;4100263;34;19904;-85
2022/05/30 06:21:40;;;;;;;;;;;17.40;74.90;;;16.56;69.57;95729.13;4075410;34;20046;-85
2022/05/30 06:24:12;;;;;;;;;;;17.40;74.60;;;16.58;69.54;95725.22;4078302;34;19904;-86
2022/05/30 06:27:00;;;;;;;;;;;17.40;74.60;;;16.61;69.39;95733.69;4122582;34;19904;-86
2022/05/30 06:29:28;;;;;;;;;;;17.40;74.60;;;16.62;69.14;95732.53;4123343;34;19904;-85
2022/05/30 06:31:58;;;;;;;;;;;17.40;74.50;;;16.62;69.43;95735.31;4077603;34;19904;-86
2022/05/30 06:34:28;;;;;;;;;;;17.40;74.40;;;16.65;69.29;95728.31;4100080;34;19919;-86
2022/05/30 06:36:57;;;;;;;;;;;17.40;74.40;;;16.66;69.33;95735.47;4100235;34;19911;-85
2022/05/30 06:39:27;;;;;;;;;;;17.40;74.40;;;16.66;69.21;95739.03;4100308;34;20127;-85
2022/05/30 06:42:22;;;;;;;;;;;17.50;74.30;;;16.69;69.34;95745.88;4079667;34;20134;-87
2022/05/30 06:45:10;;;;;;;;;;;17.50;74.30;;;16.69;69.11;95741.16;4122354;34;19997;-86
2022/05/30 06:48:02;;;;;;;;;;;17.50;74.20;;;16.69;69.12;95743.94;4059263;34;19904;-85
2022/05/30 06:50:52;;;;;;;;;;;17.50;74.30;;;16.73;68.97;95752.38;4077594;34;20139;-86
2022/05/30 06:53:21;;;;;;;;;;;17.50;74.20;;;16.79;68.86;95751.09;4099806;34;19904;-86
2022/05/30 06:55:51;;;;;;;;;;;17.60;74.00;;;16.86;68.83;95756.97;4078121;34;20636;-86
2022/05/30 06:58:22;;;;;;;;;;;17.60;73.90;;;16.94;68.58;95757.31;4100051;34;20163;-87
2022/05/30 07:00:51;;;;;;;;;;;17.70;73.70;;;16.98;68.34;95753.63;4077485;34;19904;-88
2022/05/30 07:03:35;;;;;;;;;;;17.80;73.40;;;17.02;68.09;95753.78;4123168;34;19966;-86
2022/05/30 07:06:24;;;;;;;;;;;17.80;73.20;;;17.04;68.13;95750.72;4100037;34;20064;-86
2022/05/30 07:09:11;;;;;;;;;;;17.80;73.00;;;17.02;68.11;95753.78;4102292;34;20211;-86
2022/05/30 07:11:50;;;;;;;;;;;17.80;72.90;;;17.02;68.11;95756.53;4101815;34;19948;-86
2022/05/30 07:14:20;;;;;;;;;;;17.80;72.90;;;17.00;68.17;95756.03;4080206;34;19911;-87
2022/05/30 07:16:50;;;;;;;;;;;17.80;73.00;;;16.99;68.40;95765.47;4080259;34;20148;-86
2022/05/30 07:19:19;;;;;;;;;;;17.80;73.00;;;16.95;68.40;95772.81;4102362;34;20028;-86
2022/05/30 07:21:58;;;;;;;;;;;17.80;73.20;;;16.94;68.56;95774.75;4079660;34;20484;-87
2022/05/30 07:24:45;;;;;;;;;;;17.80;73.20;;;16.92;68.50;95773.41;4125335;34;20230;-87
2022/05/30 07:27:45;;;;;;;;;;;17.70;73.30;;;16.90;68.53;95779.28;4102054;34;20073;-86
2022/05/30 07:30:32;;;;;;;;;;;17.70;73.50;;;16.90;68.72;95773.75;4101624;34;19923;-86
2022/05/30 07:33:19;;;;;;;;;;;17.70;73.50;;;16.87;68.52;95786.25;4125312;34;20086;-87
2022/05/30 07:36:09;;;;;;;;;;;17.70;73.60;;;16.87;68.65;95790.97;4101948;34;20080;-86
2022/05/30 07:39:07;;;;;;;;;;;17.70;73.60;;;16.87;68.37;95780.72;4084972;34;19904;-87
2022/05/30 07:41:54;;;;;;;;;;;17.70;73.70;;;16.86;68.75;95790.13;4079539;34;19915;-87
2022/05/30 07:44:36;;;;;;;;;;;17.60;73.60;;;16.86;68.81;95792.91;4101796;34;19904;-86
2022/05/30 07:47:21;;;;;;;;;;;17.60;73.60;;;16.86;68.74;95794.88;4101962;34;20050;-86
2022/05/30 07:50:09;;;;;;;;;;;17.60;73.60;;;16.84;68.79;95797.97;4101501;34;20044;-86
2022/05/30 07:52:57;;;;;;;;;;;17.60;73.60;;;16.84;68.62;95797.97;4079932;34;20164;-87
2022/05/30 07:55:51;;;;;;;;;;;17.60;73.70;;;16.84;68.84;95806.25;4099187;34;19911;-87
2022/05/30 07:58:20;;;;;;;;;;;17.60;73.70;;;16.84;68.86;95805.44;4114400;34;19904;-87
2022/05/30 08:00:52;;;;;;;;;;;17.60;73.70;;;16.83;68.82;95812.94;4128378;34;20156;-87
2022/05/30 08:03:25;;;;;;;;;;;17.60;73.80;;;16.83;68.81;95817.63;4094030;34;19911;-87
2022/05/30 08:06:25;;;;;;;;;;;17.60;73.80;;;16.83;68.80;95818.44;4009804;34;19980;-87
2022/05/30 08:09:12;;;;;;;;;;;17.60;73.80;;;16.85;68.76;95809.81;4122086;34;20081;-86
2022/05/30 08:12:08;;;;;;;;;;;17.60;73.80;;;16.86;68.81;95817.00;4124046;34;20126;-87
2022/05/30 08:14:55;;;;;;;;;;;17.60;73.70;;;16.87;68.76;95819.41;4101637;34;20001;-87
2022/05/30 08:17:28;;;;;;;;;;;17.60;73.70;;;16.88;68.43;95823.81;4079550;34;20244;-87
2022/05/30 08:19:59;;;;;;;;;;;17.70;73.70;;;16.90;68.80;95828.22;4078816;34;20146;-87
2022/05/30 08:22:46;;;;;;;;;;;17.70;73.70;;;16.90;68.65;95822.69;4079472;34;19912;-87
2022/05/30 08:25:17;;;;;;;;;;;17.70;73.60;;;16.87;68.53;95827.72;4101456;34;20429;-86
2022/05/30 08:27:51;;;;;;;;;;;17.70;73.60;;;16.87;68.52;95827.72;4125131;34;19904;-86
2022/05/30 08:30:20;;;;;;;;;;;17.70;73.60;;;16.90;68.64;95836.50;4105268;34;19904;-87
2022/05/30 08:33:14;;;;;;;;;;;17.70;73.70;;;16.91;68.35;95824.31;4127887;34;19903;-86
2022/05/30 08:36:03;;;;;;;;;;;17.70;73.60;;;16.92;68.71;95825.94;4152006;34;19904;-86
2022/05/30 08:38:33;;;;;;;;;;;17.70;73.60;;;16.93;68.33;95827.56;4128422;34;19911;-86
2022/05/30 08:43:50;;;;;;;;;;;17.70;73.50;;;16.94;68.60;95823.69;4096148;34;20300;-86
2022/05/30 08:46:48;;;;;;;;;;;17.70;73.40;;;16.97;68.66;95823.06;4101876;34;20212;-86
2022/05/30 08:49:23;;;;;;;;;;;17.80;73.40;;;17.00;68.31;95826.00;4079515;34;20085;-87
2022/05/30 08:52:35;;;;;;;;;;;17.80;73.30;;;17.06;68.12;95831.38;4123082;34;20027;-86
2022/05/30 08:55:13;;;;;;;;;;;17.80;73.10;;;17.06;68.15;95832.19;4122713;34;20138;-87
2022/05/30 08:57:51;;;;;;;;;;;17.90;73.10;;;17.08;68.01;95824.41;4127478;34;20150;-87
2022/05/30 09:00:26;;;;;;;;;;;17.90;73.00;;;17.11;67.99;95823.72;4081173;34;19916;-88
2022/05/30 09:04:10;;;;;;;;;;;17.90;73.00;;;17.13;67.96;95826.19;4062576;34;19904;-87
2022/05/30 09:06:46;;;;;;;;;;;17.90;73.10;;;17.14;67.91;95825.88;4101275;34;20154;-87
2022/05/30 09:09:22;;;;;;;;;;;17.90;72.90;;;17.16;67.92;95828.31;4078807;34;19904;-87
2022/05/30 09:12:15;;;;;;;;;;;17.90;72.80;;;17.17;67.69;95828.00;4078628;34;20147;-87
2022/05/30 09:14:57;;;;;;;;;;;18.00;72.70;;;17.18;67.79;95837.91;4079115;34;20000;-87
2022/05/30 09:17:30;;;;;;;;;;;18.00;72.60;;;17.17;67.79;95833.53;4079141;34;19927;-87
2022/05/30 09:19:59;;;;;;;;;;;18.00;72.60;;;17.17;67.83;95833.53;4094296;34;20416;-87
2022/05/30 09:22:29;;;;;;;;;;;18.00;72.60;;;17.16;67.85;95837.41;4127950;34;20098;-87
2022/05/30 09:28:30;;;;;;;;;;;18.00;72.70;;;17.18;68.18;95845.38;4100165;34;20007;-87
2022/05/30 09:31:25;;;;;;;;;;;18.00;72.70;;;17.18;67.80;95840.69;4122498;34;20179;-86
2022/05/30 09:34:40;;;;;;;;;;;18.00;72.70;;;17.18;67.86;95846.22;4100303;34;20096;-85
2022/05/30 09:37:32;;;;;;;;;;;18.00;72.70;;;17.21;67.78;95852.25;4124113;34;20112;-87
2022/05/30 09:40:12;;;;;;;;;;;18.00;72.60;;;17.21;67.86;95855.00;4122695;34;19915;-87
2022/05/30 09:43:00;;;;;;;;;;;18.00;72.60;;;17.21;67.73;95855.81;4078964;34;19904;-87
2022/05/30 09:45:33;;;;;;;;;;;18.00;72.60;;;17.18;67.75;95851.75;4100374;34;19997;-87
2022/05/30 09:48:07;;;;;;;;;;;18.00;72.80;;;17.22;67.98;95864.94;4101079;34;19904;-87
2022/05/30 09:50:44;;;;;;;;;;;18.00;72.60;;;17.23;68.00;95853.53;4078617;34;19911;-86
2022/05/30 09:53:19;;;;;;;;;;;18.00;72.60;;;17.24;67.76;95854.34;4079134;34;20096;-87
2022/05/30 09:55:48;;;;;;;;;;;18.00;72.40;;;17.23;67.71;95856.31;4079020;34;19969;-87
2022/05/30 09:58:39;;;;;;;;;;;18.00;72.50;;;17.25;67.82;95861.50;4078884;34;20045;-87
2022/05/30 10:01:24;;;;;;;;;;;18.10;72.60;;;17.25;67.78;95867.03;4078368;34;20127;-88
2022/05/30 10:04:21;;;;;;;;;;;18.00;72.50;;;17.25;67.84;95875.34;4078795;34;20137;-88
2022/05/30 10:07:18;;;;;;;;;;;18.00;72.80;;;17.21;67.99;95866.06;4078807;34;19904;-89
2022/05/30 10:10:20;;;;;;;;;;;18.00;72.60;;;17.18;67.51;95868.34;4108198;34;19912;-89
2022/05/30 10:12:56;;;;;;;;;;;18.00;72.80;;;17.20;67.98;95869.97;4105294;34;20126;-87
2022/05/30 10:15:45;;;;;;;;;;;18.00;72.70;;;17.20;67.94;95869.97;4127464;34;20167;-87
2022/05/30 10:18:25;;;;;;;;;;;18.00;72.80;;;17.20;67.99;95872.75;4105374;34;20130;-87
2022/05/30 10:21:06;;;;;;;;;;;18.00;72.80;;;17.20;67.87;95875.50;4104803;34;19936;-87
2022/05/30 10:30:58;;;;;;;;;;;18.00;72.80;;;17.21;68.08;95866.88;4126913;34;20215;-87
2022/05/30 10:34:42;;;;;;;;;;;18.00;72.70;;;17.21;67.82;95871.59;4105033;34;20130;-87
2022/05/30 10:37:23;;;;;;;;;;;18.00;72.80;;;17.21;68.10;95866.06;4047187;35;20110;-88
2022/05/30 10:40:20;;;;;;;;;;;18.00;72.80;;;17.18;68.03;95864.75;4071035;34;20012;-88
2022/05/30 10:42:54;;;;;;;;;;;18.00;72.80;;;17.18;68.13;95868.34;4099840;34;20107;-88
2022/05/30 10:45:27;;;;;;;;;;;18.00;72.90;;;17.18;68.22;95873.06;4080802;34;20071;-87
2022/05/30 10:47:58;;;;;;;;;;;18.00;72.90;;;17.16;67.71;95876.16;4080790;34;20146;-88
2022/05/30 10:50:42;;;;;;;;;;;18.00;73.00;;;17.16;68.28;95862.31;4102167;34;19911;-88
2022/05/30 10:53:20;;;;;;;;;;;18.00;73.00;;;17.16;68.21;95872.59;4080982;34;20160;-87
2022/05/30 10:56:25;;;;;;;;;;;18.00;73.00;;;17.15;68.26;95865.41;4073620;34;20153;-88
2022/05/30 10:58:59;;;;;;;;;;;17.90;73.00;;;17.15;68.19;95877.28;4080692;34;19911;-86
2022/05/30 11:01:40;;;;;;;;;;;18.00;73.10;;;17.13;68.46;95864.91;4124298;34;20124;-87
2022/05/30 11:04:27;;;;;;;;;;;17.90;73.10;;;17.13;68.37;95874.00;4080462;34;20019;-87
2022/05/30 11:06:57;;;;;;;;;;;17.90;73.10;;;17.15;68.35;95879.25;4102594;34;19911;-88
2022/05/30 11:09:30;;;;;;;;;;;17.90;73.10;;;17.14;68.05;95872.88;4080466;34;20165;-87
2022/05/30 11:12:02;;;;;;;;;;;17.90;73.10;;;17.14;68.25;95877.63;4080063;34;19911;-87
2022/05/30 11:14:39;;;;;;;;;;;17.90;73.10;;;17.12;68.14;95875.16;4102850;34;19904;-87
2022/05/30 11:17:38;;;;;;;;;;;17.90;73.20;;;17.15;68.06;95882.00;4130633;34;20165;-87
2022/05/30 11:20:29;;;;;;;;;;;17.90;73.20;;;17.13;68.21;95876.78;4101811;34;19916;-87
2022/05/30 11:22:59;;;;;;;;;;;18.00;73.10;;;17.15;67.95;95885.56;4151799;34;19947;-87
2022/05/30 11:25:39;;;;;;;;;;;17.90;73.20;;;17.16;68.23;95889.97;4152511;34;20123;-87
2022/05/30 11:28:13;;;;;;;;;;;18.00;73.10;;;17.17;68.22;95885.25;4129182;34;20226;-87
2022/05/30 11:30:47;;;;;;;;;;;18.00;73.10;;;17.16;68.36;95889.97;4106268;34;20218;-88
2022/05/30 11:33:50;;;;;;;;;;;18.00;73.20;;;17.17;68.37;95888.00;4079963;34;19904;-87
2022/05/30 11:36:47;;;;;;;;;;;18.00;73.10;;;17.16;68.25;95886.41;4080005;34;19911;-87
2022/05/30 11:39:26;;;;;;;;;;;18.00;73.10;;;17.17;68.35;95888.84;4080025;34;19911;-87
2022/05/30 11:42:01;;;;;;;;;;;18.00;73.10;;;17.17;68.28;95891.59;4124952;34;19911;-88
2022/05/30 11:44:43;;;;;;;;;;;18.00;73.10;;;17.18;68.12;95889.66;4102286;34;20107;-88
2022/05/30 11:47:32;;;;;;;;;;;18.00;73.10;;;17.18;68.18;95887.72;4080154;34;19904;-87
2022/05/30 11:50:11;;;;;;;;;;;18.00;73.10;;;17.20;68.14;95889.34;4099471;34;20256;-87
2022/05/30 11:53:04;;;;;;;;;;;18.00;73.00;;;17.19;68.12;95880.22;4079357;34;20037;-87
2022/05/30 11:55:37;;;;;;;;;;;18.00;73.00;;;17.19;68.15;95885.75;4079983;34;19944;-87
2022/05/30 11:58:12;;;;;;;;;;;18.00;73.00;;;17.20;68.32;95892.09;4079848;34;20130;-87
2022/05/30 12:00:43;;;;;;;;;;;18.00;73.10;;;17.16;68.33;95891.94;4079367;34;20070;-86
2022/05/30 12:04:06;;;;;;;;;;;18.00;73.10;;;17.17;68.33;95894.38;4079724;34;19904;-86
2022/05/30 12:06:53;;;;;;;;;;;18.00;73.10;;;17.15;68.42;95888.34;4101403;34;20119;-86
2022/05/30 12:09:53;;;;;;;;;;;17.90;73.20;;;17.14;68.31;95889.47;4106585;34;19952;-87
2022/05/30 12:12:49;;;;;;;;;;;17.90;73.30;;;17.14;68.22;95883.94;4128713;34;19904;-87
2022/05/30 12:16:04;;;;;;;;;;;17.90;73.30;;;17.13;68.57;95878.75;4128457;34;20100;-87
2022/05/30 12:24:40;;;;;;;;;;;17.90;73.40;;;17.13;68.34;95890.59;4128509;34;20104;-87
2022/05/30 12:27:12;;;;;;;;;;;17.90;73.40;;;17.12;68.63;95886.22;4128482;34;19904;-87
2022/05/30 12:29:49;;;;;;;;;;;17.90;73.40;;;17.12;68.40;95886.22;4106230;34;19956;-87
2022/05/30 12:32:42;;;;;;;;;;;17.90;73.30;;;17.13;68.70;95893.38;4105955;34;19904;-87
2022/05/30 12:35:28;;;;;;;;;;;17.90;73.40;;;17.14;68.69;95888.69;4106293;34;20138;-87
2022/05/30 12:38:16;;;;;;;;;;;18.00;73.30;;;17.14;68.55;95883.16;4106041;34;19926;-87